Current Weather

Portland Intl

Portland, Oregon (KPDX)

Report from: Sunday, September 25, 2022 6:53 PM PDT
Current time: Sunday, September 25, 2022 7:53 PM PDT

Nearby weather
Weather history
Weather forecast

Temperature28.9°C (84.0°F)
Heat index28.5°C (83.3°F)
Dew point12.8°C (55.0°F)
Winds 3 kts (1.5 m/s, 3.5 mph) North-Northeast (20°)
Visibility10 mi. (16.1 km)
Clouds Few clouds 25,000 ft. (7,620 m)
Altimeter29.96 in.Hg (1015 mB)
Relative humidity37 %
Density altitude1,760 ft. (537 m)
Sea-level pressure101.5 kPa (1015 mB, 29.96 in.Hg)
Remarks Automated weather observing station with precipitation discriminator
Flight conditions Visual Meteorological Conditions
Raw dataKPDX 260153Z 02003KT 10SM FEW250 29/13 A2996 RMK AO2 SLP146 T02890128
An error has occurred. This application may no longer respond until reloaded. Reload 🗙